Time;durP1;ratioP1;P1;durP2;ratioP2;P2;SDS_P1;SDS_P2;PMS_P1;PMS_P2;Temp;Humidity;BMP_temperature;BMP_pressure;BME280_temperature;BME280_humidity;BME280_pressure;Samples;Min_cycle;Max_cycle;Signal;HPM_P1;HPM_P2
2022/11/15 06:05:25;;;;;;;18.77;6.07;;;16.40;69.20;;;;;;5330453;23;20058;-78
2022/11/15 06:07:51;;;;;;;14.00;4.65;;;16.40;69.00;;;;;;4845746;29;20058;-76
2022/11/15 06:10:17;;;;;;;23.67;6.25;;;16.40;69.20;;;;;;4862610;29;20462;-75
2022/11/15 06:12:42;;;;;;;16.05;5.68;;;16.40;69.10;;;;;;4862856;29;20049;-75
2022/11/15 06:15:09;;;;;;;22.90;5.45;;;16.40;69.20;;;;;;4862581;29;20061;-79
2022/11/15 06:17:34;;;;;;;14.95;5.00;;;16.40;69.50;;;;;;4864910;29;20132;-76
2022/11/15 06:20:00;;;;;;;18.13;5.57;;;16.40;69.50;;;;;;4866536;29;20495;-78
2022/11/15 06:22:25;;;;;;;16.55;7.28;;;16.30;69.50;;;;;;4866546;29;20100;-75
2022/11/15 06:24:51;;;;;;;16.58;7.15;;;16.30;69.40;;;;;;4866338;29;20052;-77
2022/11/15 06:27:17;;;;;;;20.10;8.77;;;16.30;69.20;;;;;;4866562;29;20406;-77
2022/11/15 06:29:42;;;;;;;21.05;11.55;;;16.20;68.50;;;;;;4866426;29;20064;-80
2022/11/15 06:32:08;;;;;;;19.70;11.68;;;16.20;68.60;;;;;;4866122;29;20088;-77
2022/11/15 06:34:35;;;;;;;17.02;11.55;;;16.10;68.40;;;;;;4866058;29;20075;-76
2022/11/15 06:37:02;;;;;;;19.10;11.80;;;16.00;68.30;;;;;;4866258;29;20060;-75
2022/11/15 06:39:27;;;;;;;17.92;11.65;;;16.00;68.10;;;;;;4866017;29;20053;-75
2022/11/15 06:41:53;;;;;;;18.88;11.07;;;15.90;68.00;;;;;;4865432;29;20356;-73
2022/11/15 06:44:19;;;;;;;17.08;9.90;;;15.90;68.10;;;;;;4866316;29;20049;-74
2022/11/15 06:46:44;;;;;;;13.65;9.02;;;15.80;68.30;;;;;;4849728;29;20077;-75
2022/11/15 06:49:10;;;;;;;13.85;8.32;;;15.70;68.50;;;;;;4865980;29;20068;-76
2022/11/15 06:51:36;;;;;;;14.43;8.20;;;15.70;68.70;;;;;;4866158;29;20042;-75
2022/11/15 06:54:01;;;;;;;13.10;7.90;;;15.70;68.90;;;;;;4866347;29;20061;-77
2022/11/15 06:56:27;;;;;;;15.48;7.43;;;15.70;69.10;;;;;;4865627;29;20055;-75
2022/11/15 06:58:53;;;;;;;16.52;7.38;;;15.60;69.30;;;;;;4865248;29;20049;-78
2022/11/15 07:01:18;;;;;;;16.98;6.20;;;15.60;69.60;;;;;;4865370;29;20049;-78
2022/11/15 07:03:45;;;;;;;16.63;6.85;;;15.60;69.70;;;;;;4865180;29;20129;-77
2022/11/15 07:06:11;;;;;;;13.85;6.30;;;15.50;69.80;;;;;;4848460;29;20469;-76
2022/11/15 07:08:37;;;;;;;12.57;5.85;;;15.50;69.80;;;;;;4829514;29;20072;-74
2022/11/15 07:11:07;;;;;;;13.48;6.95;;;15.50;69.90;;;;;;4865757;29;20049;-73
2022/11/15 07:13:34;;;;;;;18.50;6.68;;;15.50;70.00;;;;;;4865550;29;20064;-75
2022/11/15 07:16:05;;;;;;;20.00;6.80;;;15.50;70.10;;;;;;4875938;29;20057;-74
2022/11/15 07:18:32;;;;;;;13.70;7.18;;;15.40;70.20;;;;;;4884363;29;20053;-73
2022/11/15 07:21:03;;;;;;;13.15;6.53;;;15.40;70.30;;;;;;4884136;29;20056;-73
2022/11/15 07:23:29;;;;;;;21.30;6.90;;;15.30;70.50;;;;;;4883746;29;20053;-78
2022/11/15 07:25:58;;;;;;;16.25;7.13;;;15.30;70.70;;;;;;4867014;29;20049;-76
2022/11/15 07:28:24;;;;;;;17.20;7.22;;;15.30;70.80;;;;;;4883127;29;20049;-76
2022/11/15 07:30:50;;;;;;;16.80;7.38;;;15.30;71.10;;;;;;4883581;29;20033;-76
2022/11/15 07:33:15;;;;;;;16.40;7.18;;;15.30;71.20;;;;;;4883689;29;20052;-77
2022/11/15 07:35:42;;;;;;;20.50;6.95;;;15.30;71.50;;;;;;4867256;29;20056;-76
2022/11/15 07:38:08;;;;;;;19.67;6.10;;;15.30;71.70;;;;;;4883808;29;20089;-77
2022/11/15 07:40:33;;;;;;;16.08;6.65;;;15.30;71.90;;;;;;4883530;29;20049;-76
2022/11/15 07:43:05;;;;;;;24.77;6.20;;;15.20;72.00;;;;;;4883281;29;20053;-76
2022/11/15 07:45:33;;;;;;;16.52;5.57;;;15.20;72.30;;;;;;4883236;29;20049;-77
2022/11/15 07:47:59;;;;;;;13.60;5.90;;;15.20;72.50;;;;;;4883687;29;20129;-78
2022/11/15 07:50:26;;;;;;;29.02;5.50;;;15.20;72.60;;;;;;4884076;29;20574;-78
2022/11/15 07:52:58;;;;;;;16.33;5.25;;;15.20;72.70;;;;;;4866543;29;20049;-78
2022/11/15 07:55:24;;;;;;;15.35;5.22;;;15.20;72.80;;;;;;4866767;29;20373;-79
2022/11/15 07:57:50;;;;;;;17.33;4.85;;;15.20;72.90;;;;;;4866962;29;20147;-76
2022/11/15 08:00:16;;;;;;;15.43;5.25;;;15.20;73.00;;;;;;4883225;29;20140;-78
2022/11/15 08:02:42;;;;;;;20.88;5.55;;;15.20;73.10;;;;;;4883227;29;20045;-74
2022/11/15 08:05:08;;;;;;;25.55;6.07;;;15.20;73.30;;;;;;4862507;29;20045;-79
2022/11/15 08:07:34;;;;;;;17.02;4.75;;;15.20;73.30;;;;;;4845460;29;20496;-76
2022/11/15 08:10:01;;;;;;;17.70;4.40;;;15.20;73.20;;;;;;4846019;29;20041;-77
2022/11/15 08:12:29;;;;;;;13.38;5.38;;;15.20;73.20;;;;;;4845968;29;20117;-78
2022/11/15 08:14:56;;;;;;;14.93;4.85;;;15.20;73.10;;;;;;4829895;29;20065;-77
2022/11/15 08:17:25;;;;;;;15.05;4.43;;;15.20;73.10;;;;;;4846033;29;20065;-76
2022/11/15 08:19:51;;;;;;;13.88;5.30;;;15.10;73.00;;;;;;4829692;29;20472;-76
2022/11/15 08:22:17;;;;;;;16.85;4.97;;;15.10;72.90;;;;;;4845815;29;20046;-78
2022/11/15 08:24:44;;;;;;;14.50;5.25;;;15.10;72.90;;;;;;4845690;29;20053;-80
2022/11/15 08:27:14;;;;;;;19.95;5.40;;;15.10;72.90;;;;;;4814790;29;20061;-74
2022/11/15 08:29:42;;;;;;;19.08;6.13;;;15.10;73.00;;;;;;4846285;29;20149;-79
2022/11/15 08:32:08;;;;;;;26.80;6.30;;;15.10;73.00;;;;;;4831389;29;20069;-79
2022/11/15 08:34:34;;;;;;;15.45;5.95;;;15.10;73.00;;;;;;4847866;29;20502;-79
2022/11/15 08:36:59;;;;;;;14.48;6.07;;;15.10;72.90;;;;;;4864299;29;20053;-78
2022/11/15 08:39:25;;;;;;;17.75;6.65;;;15.10;73.00;;;;;;4863878;29;20057;-78
2022/11/15 08:41:51;;;;;;;25.63;6.35;;;15.00;73.00;;;;;;4863830;29;20049;-77
2022/11/15 08:44:16;;;;;;;14.73;5.78;;;15.00;73.00;;;;;;4847424;29;20575;-77
2022/11/15 08:46:42;;;;;;;17.00;5.75;;;15.00;73.00;;;;;;4847314;29;20137;-79
2022/11/15 08:49:08;;;;;;;11.57;4.85;;;15.00;73.10;;;;;;4863685;29;20120;-77
2022/11/15 08:51:33;;;;;;;16.52;5.88;;;15.00;73.20;;;;;;4862915;29;20450;-75
2022/11/15 08:53:59;;;;;;;18.30;4.65;;;15.00;73.20;;;;;;4863380;29;20049;-76
2022/11/15 08:56:24;;;;;;;13.07;4.97;;;15.00;73.30;;;;;;4863837;29;20330;-77
2022/11/15 08:58:50;;;;;;;13.32;4.07;;;15.00;73.30;;;;;;4863849;29;20064;-78
2022/11/15 09:01:18;;;;;;;15.00;3.78;;;15.00;73.30;;;;;;4840874;29;20124;-78
2022/11/15 09:03:44;;;;;;;6.35;3.65;;;14.90;73.20;;;;;;4845233;29;20430;-77
2022/11/15 09:06:10;;;;;;;10.38;3.25;;;14.90;73.20;;;;;;4844815;29;20104;-78
2022/11/15 09:08:36;;;;;;;7.57;2.80;;;14.90;73.20;;;;;;4844834;29;20125;-75
2022/11/15 09:11:09;;;;;;;7.90;3.65;;;14.90;73.20;;;;;;4845664;29;20097;-78
2022/11/15 09:13:36;;;;;;;10.47;3.37;;;14.90;73.30;;;;;;4844785;29;20070;-77
2022/11/15 09:16:03;;;;;;;9.27;3.20;;;14.90;73.20;;;;;;4828971;29;20460;-77
2022/11/15 09:18:29;;;;;;;3.80;2.42;;;14.90;73.10;;;;;;4845223;29;20049;-76
2022/11/15 09:20:56;;;;;;;7.00;2.42;;;14.90;73.00;;;;;;4844976;29;20054;-77
2022/11/15 09:23:23;;;;;;;5.55;2.38;;;14.90;73.00;;;;;;4845041;29;20118;-76
2022/11/15 09:25:49;;;;;;;6.75;2.10;;;14.90;73.00;;;;;;4844986;29;20058;-78
2022/11/15 09:28:15;;;;;;;6.65;1.92;;;14.90;73.00;;;;;;4844927;29;20046;-77
2022/11/15 09:30:40;;;;;;;3.97;1.63;;;14.90;72.90;;;;;;4840634;29;20420;-77
2022/11/15 09:33:11;;;;;;;6.38;2.28;;;14.90;73.50;;;;;;4862950;29;20056;-75
2022/11/15 09:35:36;;;;;;;7.60;1.90;;;14.90;72.90;;;;;;4847349;29;20128;-76
2022/11/15 09:38:03;;;;;;;6.13;2.35;;;14.90;72.90;;;;;;4863117;29;20345;-75
2022/11/15 09:40:31;;;;;;;13.00;3.28;;;14.90;72.90;;;;;;4860442;29;20434;-74
2022/11/15 09:43:18;;;;;;;11.02;3.95;;;14.70;72.60;;;;;;4860341;29;20473;-76
2022/11/15 09:46:08;;;;;;;10.32;4.25;;;14.70;72.90;;;;;;4845583;29;20049;-76
2022/11/15 09:48:52;;;;;;;13.52;4.55;;;14.70;73.20;;;;;;4846513;29;20137;-73
2022/11/15 09:51:23;;;;;;;;;;;14.60;74.00;;;;;;4862782;29;20189;-76
2022/11/15 09:53:52;;;;;;;12.13;3.47;;;14.50;73.80;;;;;;4862745;29;19932;-78
2022/11/15 09:56:21;;;;;;;11.20;4.28;;;14.60;74.70;;;;;;4862643;29;20088;-78
2022/11/15 09:58:50;;;;;;;13.75;3.92;;;14.60;75.10;;;;;;4846296;29;20140;-79
2022/11/15 10:01:41;;;;;;;14.45;3.97;;;14.70;75.10;;;;;;4848159;29;20049;-79
2022/11/15 10:04:08;;;;;;;8.23;3.50;;;14.70;75.50;;;;;;4862581;29;20049;-77
2022/11/15 10:06:40;;;;;;;9.50;3.38;;;14.80;75.20;;;;;;4831033;29;20125;-76
2022/11/15 10:09:19;;;;;;;14.00;3.17;;;14.90;75.30;;;;;;4862852;29;20049;-77
2022/11/15 10:11:45;;;;;;;8.05;2.90;;;14.90;75.50;;;;;;4862941;29;20057;-77
2022/11/15 10:14:13;;;;;;;9.55;2.40;;;14.90;75.50;;;;;;4862770;29;20072;-76
2022/11/15 10:16:58;;;;;;;7.43;2.50;;;14.90;76.10;;;;;;4862229;29;20045;-77
2022/11/15 10:19:34;;;;;;;8.30;2.22;;;14.90;75.60;;;;;;4845971;29;20054;-77
2022/11/15 10:22:25;;;;;;;12.98;3.15;;;15.00;75.70;;;;;;4863128;29;20053;-73
2022/11/15 10:25:08;;;;;;;10.57;5.25;;;15.00;75.60;;;;;;4862874;29;20064;-74
2022/11/15 10:27:34;;;;;;;16.85;11.65;;;15.00;75.20;;;;;;4862505;29;20057;-75
2022/11/15 10:30:00;;;;;;;16.27;13.25;;;15.00;74.80;;;;;;4862612;29;20369;-73
2022/11/15 10:32:27;;;;;;;20.45;13.63;;;14.90;74.70;;;;;;4851459;29;20089;-75
2022/11/15 10:34:52;;;;;;;19.42;12.88;;;14.90;74.60;;;;;;4827799;29;20054;-76
2022/11/15 10:37:29;;;;;;;22.27;11.77;;;14.90;74.70;;;;;;4844194;29;20053;-76
2022/11/15 10:40:22;;;;;;;17.00;9.82;;;14.90;74.90;;;;;;4827808;29;20050;-76
2022/11/15 10:43:04;;;;;;;13.18;8.50;;;14.90;75.00;;;;;;4855590;29;20089;-76
2022/11/15 10:45:32;;;;;;;18.58;7.43;;;14.90;75.00;;;;;;4845643;29;20057;-77
2022/11/15 10:48:27;;;;;;;17.33;6.28;;;14.90;75.00;;;;;;4862073;29;20053;-78
2022/11/15 10:50:55;;;;;;;13.13;5.85;;;15.00;75.20;;;;;;4853934;29;20058;-77
2022/11/15 10:53:32;;;;;;;19.52;6.05;;;15.00;74.90;;;;;;4862414;29;20062;-77
2022/11/15 10:56:08;;;;;;;14.98;5.95;;;15.00;74.80;;;;;;4862101;29;20061;-74
2022/11/15 10:58:41;;;;;;;22.23;5.10;;;15.10;74.90;;;;;;4861793;29;20046;-73
2022/11/15 11:01:19;;;;;;;16.75;4.50;;;15.10;74.90;;;;;;4862288;29;20137;-74
2022/11/15 11:04:00;;;;;;;13.73;4.50;;;15.10;74.90;;;;;;4862897;29;20049;-77
2022/11/15 11:06:26;;;;;;;11.65;4.50;;;15.20;74.90;;;;;;4865049;29;20065;-75
2022/11/15 11:09:04;;;;;;;9.30;3.53;;;15.20;74.90;;;;;;4865209;29;20053;-75
2022/11/15 11:11:51;;;;;;;10.48;3.65;;;15.20;74.90;;;;;;4864126;29;20053;-74
2022/11/15 11:14:24;;;;;;;11.93;3.35;;;15.20;74.90;;;;;;4865554;29;20045;-74
2022/11/15 11:17:23;;;;;;;12.15;3.15;;;15.20;74.90;;;;;;4849222;29;20057;-74
2022/11/15 11:20:11;;;;;;;11.65;3.97;;;15.20;74.90;;;;;;4865341;29;20053;-75
2022/11/15 11:22:48;;;;;;;11.27;3.30;;;15.20;74.90;;;;;;4865273;29;20089;-75
2022/11/15 11:25:36;;;;;;;11.43;3.08;;;15.20;74.90;;;;;;4865310;29;20049;-75
2022/11/15 11:28:41;;;;;;;11.68;2.90;;;15.20;75.00;;;;;;4864849;29;20041;-74
2022/11/15 11:31:47;;;;;;;11.02;3.88;;;15.20;75.20;;;;;;4865177;29;20046;-78
2022/11/15 11:34:31;;;;;;;12.25;5.00;;;15.20;75.00;;;;;;4847149;29;20469;-76
2022/11/15 11:37:23;;;;;;;13.20;5.78;;;15.20;74.70;;;;;;4864556;29;20049;-73
2022/11/15 11:40:19;;;;;;;15.32;6.88;;;15.20;74.60;;;;;;4864831;29;20082;-75
2022/11/15 11:42:57;;;;;;;14.38;5.75;;;15.20;74.50;;;;;;4863356;29;20052;-76
2022/11/15 11:46:01;;;;;;;13.30;6.00;;;15.20;74.50;;;;;;4865175;29;20478;-75
2022/11/15 11:48:42;;;;;;;11.30;6.45;;;15.20;74.30;;;;;;4865189;29;20053;-76
2022/11/15 11:51:14;;;;;;;10.45;6.80;;;15.20;74.30;;;;;;4848890;29;20132;-76
2022/11/15 11:53:48;;;;;;;17.00;7.22;;;15.20;74.20;;;;;;4864734;29;20145;-76
2022/11/15 11:56:28;;;;;;;14.80;6.95;;;15.20;74.00;;;;;;4864452;29;20452;-76
2022/11/15 11:59:00;;;;;;;14.05;7.55;;;15.30;74.00;;;;;;4864307;29;20061;-77
2022/11/15 12:01:35;;;;;;;10.90;7.07;;;15.30;73.90;;;;;;4859782;29;20056;-75
2022/11/15 12:04:09;;;;;;;10.40;7.65;;;15.30;73.10;;;;;;4846128;29;20130;-75
2022/11/15 12:06:42;;;;;;;13.02;8.35;;;15.20;72.80;;;;;;4846057;29;20066;-76
2022/11/15 12:09:32;;;;;;;11.38;7.22;;;15.10;72.80;;;;;;4845879;29;20062;-79
2022/11/15 12:12:23;;;;;;;11.70;7.68;;;15.10;73.10;;;;;;4845941;29;20457;-77
2022/11/15 12:14:56;;;;;;;10.85;7.05;;;15.00;73.40;;;;;;4845762;29;20050;-76
2022/11/15 12:17:31;;;;;;;12.18;6.88;;;15.00;73.70;;;;;;4846117;29;20050;-78
2022/11/15 12:19:59;;;;;;;21.50;7.22;;;15.00;74.00;;;;;;4845596;29;20467;-77
2022/11/15 12:22:35;;;;;;;12.88;6.43;;;15.10;74.10;;;;;;4845775;29;20110;-79
2022/11/15 12:25:14;;;;;;;10.27;5.82;;;15.10;74.30;;;;;;4845121;29;20142;-76
2022/11/15 12:28:07;;;;;;;11.90;5.63;;;15.00;74.30;;;;;;4829355;29;20064;-80
2022/11/15 12:30:52;;;;;;;19.55;5.70;;;15.10;74.60;;;;;;4813830;29;20062;-78
2022/11/15 12:33:31;;;;;;;11.18;5.22;;;15.10;74.60;;;;;;4863623;29;20042;-77
2022/11/15 12:36:06;;;;;;;4.85;3.53;;;15.10;74.60;;;;;;4864002;29;20052;-79
2022/11/15 12:38:58;;;;;;;9.40;3.78;;;15.00;74.50;;;;;;4847573;29;20067;-79
2022/11/15 12:41:28;;;;;;;7.28;2.88;;;15.10;74.60;;;;;;4863838;29;20176;-77
2022/11/15 12:43:54;;;;;;;6.80;2.95;;;15.00;74.60;;;;;;4863792;29;20460;-79
2022/11/15 12:46:21;;;;;;;5.28;2.85;;;15.00;74.70;;;;;;4863919;29;20060;-77
2022/11/15 12:48:55;;;;;;;5.10;1.73;;;15.00;74.70;;;;;;4863720;29;20057;-77
2022/11/15 12:51:41;;;;;;;5.07;2.30;;;15.00;74.70;;;;;;4863308;29;20136;-79
2022/11/15 12:54:22;;;;;;;7.88;1.75;;;15.00;74.70;;;;;;4863584;29;20053;-79
2022/11/15 12:57:03;;;;;;;2.78;1.63;;;15.00;74.80;;;;;;4863568;29;20105;-78
2022/11/15 13:00:01;;;;;;;2.90;1.55;;;15.00;75.00;;;;;;4847292;29;20331;-79
2022/11/15 13:02:43;;;;;;;3.95;1.60;;;15.00;75.10;;;;;;4825575;29;20073;-79
2022/11/15 13:05:15;;;;;;;3.78;1.48;;;15.00;75.10;;;;;;4845610;29;20507;-78
2022/11/15 13:07:41;;;;;;;2.65;1.30;;;15.00;75.00;;;;;;4824927;29;20062;-79
2022/11/15 13:10:10;;;;;;;5.30;1.23;;;15.00;75.00;;;;;;4829079;29;20068;-79
2022/11/15 13:12:41;;;;;;;3.28;1.35;;;15.00;75.00;;;;;;4845009;29;20089;-78
2022/11/15 13:15:13;;;;;;;3.75;1.10;;;15.00;74.90;;;;;;4844917;29;20061;-78
2022/11/15 13:17:47;;;;;;;1.65;0.80;;;15.00;74.90;;;;;;4845127;29;20117;-80
2022/11/15 13:20:15;;;;;;;3.42;0.75;;;15.00;74.90;;;;;;4844783;29;20057;-78
2022/11/15 13:23:03;;;;;;;4.10;0.90;;;15.00;74.90;;;;;;4845033;29;20062;-79
2022/11/15 13:25:56;;;;;;;1.65;0.70;;;15.00;74.90;;;;;;4845416;29;20046;-78
2022/11/15 13:28:33;;;;;;;3.17;0.77;;;15.00;74.90;;;;;;4838966;29;20053;-79
2022/11/15 13:31:22;;;;;;;2.08;0.68;;;15.00;74.90;;;;;;4863162;29;20045;-78
2022/11/15 13:33:48;;;;;;;2.92;0.90;;;15.00;75.50;;;;;;4846904;29;20049;-77
2022/11/15 13:36:21;;;;;;;0.98;0.55;;;15.00;74.90;;;;;;4863314;29;20153;-79
2022/11/15 13:38:56;;;;;;;1.50;0.60;;;15.00;74.90;;;;;;4863028;29;20132;-77
2022/11/15 13:41:27;;;;;;;3.22;0.60;;;15.00;74.90;;;;;;4862581;29;20053;-79
2022/11/15 13:43:54;;;;;;;6.53;0.90;;;15.00;74.80;;;;;;4846380;29;20064;-76
2022/11/15 13:46:38;;;;;;;5.57;1.00;;;15.00;75.00;;;;;;4861139;29;20041;-78
2022/11/15 13:49:11;;;;;;;5.68;0.90;;;15.10;75.30;;;;;;4856959;29;20058;-79
2022/11/15 13:51:50;;;;;;;9.00;1.30;;;15.20;75.10;;;;;;4834504;29;20046;-80
2022/11/15 13:54:33;;;;;;;15.90;1.35;;;15.50;75.10;;;;;;4844431;29;20128;-77
2022/11/15 13:57:28;;;;;;;10.20;1.92;;;15.60;74.90;;;;;;4861504;29;20042;-80
2022/11/15 14:00:04;;;;;;;5.47;0.70;;;15.70;74.50;;;;;;4827349;29;20351;-80
2022/11/15 14:02:32;;;;;;;11.07;0.98;;;15.90;74.50;;;;;;4848866;29;20434;-79
2022/11/15 14:05:01;;;;;;;7.90;0.77;;;16.00;74.60;;;;;;4848693;29;20063;-77
2022/11/15 14:07:28;;;;;;;18.77;7.60;;;16.00;74.70;;;;;;4852408;29;20537;-77
2022/11/15 14:09:54;;;;;;;22.20;10.23;;;16.10;75.80;;;;;;4847088;29;20383;-78
2022/11/15 14:12:32;;;;;;;14.88;3.20;;;16.10;76.30;;;;;;4845882;29;20416;-82
2022/11/15 14:15:01;;;;;;;9.27;3.20;;;16.10;76.40;;;;;;4859530;29;20157;-74
2022/11/15 14:17:29;;;;;;;6.82;2.00;;;16.10;76.50;;;;;;4862537;29;20128;-77
2022/11/15 14:19:56;;;;;;;9.63;2.40;;;16.20;76.10;;;;;;4831082;29;20094;-78
2022/11/15 14:22:28;;;;;;;8.38;2.53;;;16.10;76.50;;;;;;4862515;29;20059;-75
2022/11/15 14:25:19;;;;;;;10.20;4.03;;;16.10;77.10;;;;;;4861714;29;20449;-75
2022/11/15 14:28:14;;;;;;;13.38;3.10;;;16.10;78.80;;;;;;4861783;29;20373;-74
2022/11/15 14:30:40;;;;;;;;;;;16.10;79.90;;;;;;4857013;29;20056;-77
2022/11/15 14:33:31;;;;;;;11.77;2.28;;;16.10;79.10;;;;;;4860886;29;20332;-74
2022/11/15 14:36:05;;;;;;;9.30;4.38;;;16.10;79.00;;;;;;4862085;29;20528;-76
2022/11/15 14:38:31;;;;;;;10.13;3.70;;;16.20;80.00;;;;;;4847932;29;20064;-75
2022/11/15 14:40:57;;;;;;;7.20;2.10;;;16.20;80.60;;;;;;4866443;29;20357;-72
2022/11/15 14:43:23;;;;;;;10.52;2.05;;;16.20;79.50;;;;;;4865936;29;20068;-75
2022/11/15 14:45:48;;;;;;;18.23;3.30;;;16.20;78.90;;;;;;4849613;29;20053;-76
2022/11/15 14:48:14;;;;;;;7.80;2.88;;;16.10;78.70;;;;;;4865892;29;20060;-75
2022/11/15 14:50:40;;;;;;;14.68;4.35;;;16.20;78.80;;;;;;4865843;29;20057;-75
2022/11/15 14:53:06;;;;;;;10.32;2.88;;;16.20;79.10;;;;;;4865946;29;20391;-75
2022/11/15 14:55:37;;;;;;;9.77;2.65;;;16.30;79.00;;;;;;4866047;29;20041;-75
2022/11/15 14:58:04;;;;;;;10.27;3.55;;;16.30;78.50;;;;;;4865510;29;20063;-78
2022/11/15 15:00:31;;;;;;;12.57;2.63;;;16.30;77.90;;;;;;4863885;29;20050;-76
2022/11/15 15:02:57;;;;;;;9.65;2.75;;;16.40;77.30;;;;;;4865547;29;20054;-78
2022/11/15 15:05:25;;;;;;;9.13;2.67;;;16.40;77.10;;;;;;4865537;29;20121;-76
2022/11/15 15:07:52;;;;;;;11.80;2.83;;;16.40;76.90;;;;;;4865445;29;20521;-78
2022/11/15 15:10:19;;;;;;;11.82;2.35;;;16.30;77.00;;;;;;4865452;29;20096;-76
2022/11/15 15:12:44;;;;;;;8.07;1.80;;;16.30;77.30;;;;;;4865490;29;20050;-75
2022/11/15 15:15:16;;;;;;;6.22;1.63;;;16.40;77.50;;;;;;4865720;29;20449;-76
2022/11/15 15:17:41;;;;;;;8.60;1.67;;;16.40;77.20;;;;;;4849449;29;20061;-77
2022/11/15 15:20:08;;;;;;;5.85;1.52;;;16.30;76.50;;;;;;4865738;29;20058;-76
2022/11/15 15:22:34;;;;;;;5.70;1.55;;;16.30;75.50;;;;;;4865518;29;20057;-80
2022/11/15 15:24:59;;;;;;;2.97;1.00;;;16.30;74.60;;;;;;4865264;29;20072;-77
2022/11/15 15:27:25;;;;;;;4.22;1.10;;;16.30;74.10;;;;;;4864867;29;20089;-78
2022/11/15 15:29:51;;;;;;;4.43;1.40;;;16.30;73.70;;;;;;4864680;29;20060;-75
2022/11/15 15:32:16;;;;;;;2.97;1.80;;;16.10;68.70;;;;;;4850449;29;20523;-75
2022/11/15 15:34:42;;;;;;;4.38;1.40;;;15.90;67.70;;;;;;4864468;29;20041;-75
2022/11/15 15:37:24;;;;;;;3.58;1.20;;;15.70;66.30;;;;;;4833692;29;20369;-76
2022/11/15 15:39:56;;;;;;;2.25;0.85;;;15.50;68.10;;;;;;4864670;29;20065;-76
2022/11/15 15:42:23;;;;;;;3.65;1.10;;;15.30;68.80;;;;;;4864867;29;20049;-78
2022/11/15 15:44:49;;;;;;;3.05;1.00;;;15.30;69.50;;;;;;4846983;29;20083;-76
2022/11/15 15:47:21;;;;;;;2.03;0.80;;;15.40;69.80;;;;;;4864575;29;20475;-75
2022/11/15 15:49:47;;;;;;;6.68;0.90;;;15.40;70.00;;;;;;4864382;29;20342;-78
2022/11/15 15:52:13;;;;;;;5.30;0.80;;;15.50;70.40;;;;;;4865124;29;20106;-78
2022/11/15 15:54:40;;;;;;;3.05;0.60;;;15.50;70.80;;;;;;4864456;29;20398;-77
2022/11/15 15:57:07;;;;;;;2.33;0.60;;;15.60;71.20;;;;;;4864751;29;20045;-77
2022/11/15 15:59:33;;;;;;;4.38;0.60;;;15.60;71.80;;;;;;4864313;29;20053;-78
2022/11/15 16:01:59;;;;;;;8.88;1.60;;;15.60;71.40;;;;;;4856641;29;20057;-76
2022/11/15 16:04:25;;;;;;;3.22;0.50;;;15.70;71.90;;;;;;4846406;29;20046;-77
2022/11/15 16:06:54;;;;;;;4.68;0.90;;;15.60;72.20;;;;;;4845972;29;20458;-76
2022/11/15 16:09:59;;;;;;;3.88;0.50;;;15.70;72.50;;;;;;4845501;29;20050;-79
2022/11/15 16:12:06;;;;;;;6.32;1.17;;;15.60;72.70;;;;;;4845930;29;20461;-76
2022/11/15 16:14:32;;;;;;;7.97;1.10;;;15.70;73.10;;;;;;4846266;29;20052;-78
2022/11/15 16:16:57;;;;;;;14.75;2.20;;;15.70;73.30;;;;;;4846226;29;20065;-79
2022/11/15 16:19:23;;;;;;;18.70;2.10;;;15.70;73.60;;;;;;4829826;29;20078;-79
2022/11/15 16:21:51;;;;;;;14.55;1.42;;;15.70;74.10;;;;;;4846358;29;20045;-77
2022/11/15 16:24:18;;;;;;;15.52;1.75;;;15.70;74.10;;;;;;4845678;29;20046;-78
2022/11/15 16:26:44;;;;;;;16.02;1.73;;;15.80;74.30;;;;;;4845903;29;20049;-78
2022/11/15 16:29:10;;;;;;;9.40;1.52;;;15.80;74.20;;;;;;4845928;29;20504;-75
2022/11/15 16:31:36;;;;;;;14.20;1.73;;;15.70;74.00;;;;;;4847985;29;20133;-74
2022/11/15 16:34:02;;;;;;;23.17;2.72;;;15.70;73.70;;;;;;4864347;29;20064;-74
2022/11/15 16:36:31;;;;;;;18.63;2.55;;;15.80;73.50;;;;;;4847545;29;20453;-75
2022/11/15 18:20:39;;;;;;;4.85;1.50;;;14.90;73.40;;;;;;4828004;29;20131;-74
2022/11/15 18:23:05;;;;;;;7.47;1.83;;;14.90;67.50;;;;;;4829409;29;20566;-72
2022/11/15 18:25:34;;;;;;;4.35;1.67;;;14.90;65.60;;;;;;4829422;29;20054;-74
2022/11/15 18:28:04;;;;;;;2.40;1.30;;;14.80;65.60;;;;;;4829345;29;20046;-74
2022/11/15 18:30:30;;;;;;;4.15;1.25;;;14.70;64.70;;;;;;4829135;29;20369;-73
2022/11/15 18:32:55;;;;;;;1.55;0.90;;;14.60;64.90;;;;;;4829613;29;20065;-73
2022/11/15 18:35:21;;;;;;;2.17;1.02;;;14.60;64.20;;;;;;4828838;29;20061;-73
2022/11/15 18:37:47;;;;;;;3.53;1.17;;;14.50;63.90;;;;;;4829620;29;20043;-73
2022/11/15 18:40:12;;;;;;;3.17;1.17;;;14.40;63.50;;;;;;4829413;29;20106;-74
2022/11/15 18:42:38;;;;;;;3.33;0.98;;;14.40;64.30;;;;;;4823783;29;20039;-76
2022/11/15 18:45:05;;;;;;;5.05;1.05;;;14.40;65.10;;;;;;4821907;29;20582;-75
2022/11/15 18:47:30;;;;;;;7.63;1.02;;;14.40;65.60;;;;;;4829121;29;20066;-73
2022/11/15 18:49:58;;;;;;;6.32;1.40;;;14.50;66.20;;;;;;4829134;29;20050;-71
2022/11/15 18:52:24;;;;;;;5.75;1.17;;;14.60;66.70;;;;;;4829150;29;20369;-71
2022/11/15 18:54:50;;;;;;;6.18;1.20;;;14.60;66.90;;;;;;4828989;29;20046;-72
2022/11/15 18:57:15;;;;;;;5.13;1.02;;;14.70;67.30;;;;;;4829254;29;20339;-72
2022/11/15 18:59:41;;;;;;;4.55;1.05;;;14.70;67.50;;;;;;4829151;29;20370;-74
2022/11/15 19:02:11;;;;;;;3.60;1.13;;;14.80;67.70;;;;;;4828622;29;20054;-72
2022/11/15 19:04:37;;;;;;;4.53;0.90;;;14.80;67.90;;;;;;4826788;29;20042;-72
2022/11/15 19:07:03;;;;;;;3.53;0.88;;;14.90;68.20;;;;;;4827669;29;20046;-72
2022/11/15 19:09:31;;;;;;;4.25;0.85;;;14.90;68.40;;;;;;4827997;29;20077;-72
2022/11/15 19:11:57;;;;;;;3.67;1.27;;;14.90;68.50;;;;;;4827893;29;20050;-72
2022/11/15 19:14:26;;;;;;;5.72;1.13;;;14.90;68.70;;;;;;4828257;29;20054;-72
2022/11/15 19:16:53;;;;;;;8.77;1.13;;;15.00;69.00;;;;;;4828166;29;20303;-72
2022/11/15 19:19:21;;;;;;;3.33;0.70;;;15.00;69.80;;;;;;4837351;29;20061;-71
2022/11/15 19:21:47;;;;;;;4.43;0.90;;;15.00;69.30;;;;;;4830975;29;20125;-72
2022/11/15 19:24:13;;;;;;;3.60;1.17;;;15.00;69.50;;;;;;4845853;29;20050;-71
2022/11/15 19:26:39;;;;;;;4.70;0.85;;;15.00;69.60;;;;;;4830595;29;20054;-73
2022/11/15 19:29:09;;;;;;;4.90;0.80;;;15.00;70.10;;;;;;4847350;29;20057;-72
2022/11/15 19:31:34;;;;;;;4.78;0.80;;;15.10;70.10;;;;;;4846971;29;20061;-72
2022/11/15 19:34:03;;;;;;;1.90;0.65;;;15.10;70.20;;;;;;4846752;29;20353;-73
2022/11/15 19:36:32;;;;;;;3.13;0.70;;;15.10;70.50;;;;;;4846879;29;20054;-72
2022/11/15 19:39:07;;;;;;;7.10;0.80;;;15.10;70.90;;;;;;4836792;29;20074;-70
2022/11/15 19:41:33;;;;;;;8.75;1.42;;;15.10;71.90;;;;;;4845727;29;20057;-72
2022/11/15 19:43:59;;;;;;;2.97;0.75;;;15.20;71.80;;;;;;4839881;29;20057;-72
2022/11/15 19:46:25;;;;;;;4.30;0.73;;;15.20;72.20;;;;;;4828349;29;20054;-72
2022/11/15 19:48:52;;;;;;;2.83;0.50;;;15.20;72.80;;;;;;4836717;29;20054;-72
2022/11/15 19:51:20;;;;;;;3.38;0.88;;;15.10;72.70;;;;;;4846219;29;20060;-70
2022/11/15 19:53:47;;;;;;;4.75;0.90;;;15.20;72.70;;;;;;4851782;29;20438;-73
2022/11/15 19:56:15;;;;;;;4.68;0.80;;;15.20;72.50;;;;;;4850587;29;20046;-73
2022/11/15 19:58:42;;;;;;;3.83;1.15;;;15.20;72.80;;;;;;4843049;29;20092;-73
2022/11/15 20:01:15;;;;;;;3.10;0.57;;;15.20;73.50;;;;;;4836075;29;20063;-73
2022/11/15 20:03:40;;;;;;;2.67;0.90;;;15.20;73.20;;;;;;4829515;29;20363;-74
2022/11/15 20:06:10;;;;;;;5.38;1.33;;;15.20;73.10;;;;;;4832898;29;20124;-73
2022/11/15 20:08:36;;;;;;;4.00;1.00;;;15.20;73.20;;;;;;4827740;29;20050;-73
2022/11/15 20:11:03;;;;;;;3.28;0.77;;;15.10;73.20;;;;;;4827880;29;20110;-73
2022/11/15 20:13:29;;;;;;;5.32;0.80;;;15.10;73.30;;;;;;4828106;29;20046;-73
2022/11/15 20:15:56;;;;;;;3.70;0.82;;;15.10;73.30;;;;;;4827677;29;20046;-73
2022/11/15 20:18:23;;;;;;;5.50;1.15;;;15.10;73.30;;;;;;4841018;29;20149;-73
2022/11/15 20:20:49;;;;;;;2.40;0.60;;;15.10;74.00;;;;;;4845794;29;20066;-73
2022/11/15 20:23:16;;;;;;;7.35;1.00;;;15.10;73.40;;;;;;4846436;29;20054;-74
2022/11/15 20:25:46;;;;;;;4.47;0.70;;;15.10;73.60;;;;;;4841718;29;20049;-73
2022/11/15 20:28:19;;;;;;;9.32;1.10;;;15.10;73.50;;;;;;4834370;29;20064;-73
2022/11/15 20:30:46;;;;;;;3.67;0.90;;;15.20;73.50;;;;;;4828480;29;20470;-73
2022/11/15 20:33:13;;;;;;;5.18;1.00;;;15.10;73.40;;;;;;4827228;29;20097;-73
2022/11/15 20:35:40;;;;;;;4.45;0.90;;;15.10;73.50;;;;;;4827166;29;20141;-73
2022/11/15 20:38:07;;;;;;;3.30;0.70;;;15.10;74.10;;;;;;4827808;29;20054;-74
2022/11/15 20:40:33;;;;;;;5.88;0.75;;;15.10;73.50;;;;;;4827442;29;20046;-73
2022/11/15 20:42:59;;;;;;;3.30;0.75;;;15.10;73.60;;;;;;4827758;29;20050;-73
2022/11/15 20:45:24;;;;;;;2.97;1.15;;;15.10;73.60;;;;;;4845241;29;20050;-73